Hovedside
METAR-TAF:

METAR-TAF

Lufthavner :

Longyearbyen, Norge

Svalbard lufthavn

breddegrad: 78-15N, lengdegrad: 015-28E, høyde over havet: 2 m

Gjeldene værobservasjon

Denne rapporten ble laget for 41 minutter siden, klokken 21:50 UTC
Vind 7 kt fra Vest
Temperatur 6°C
Luftfuktighet 93%
Trykk 1014 hPa
Sikt 10 km eller mer
Spredte skyer i en høyde av 600 ft
Brutte skyer i en høyde av 1200 ft

METAR: ENSB 242150Z 26007KT 9999 SCT006 BKN012 06/05 Q1014 RMK WIND 1400FT 30003KT

Tid: 00:31 (22:31 UTC)

Varsel

Varsel gyldig fra 24. klokken 18 UTC til 25. klokken 18 UTC
Vind 12 kt fra Vest-sørvest
Sikt 10 km eller mer
Spredte skyer i en høyde av 900 ft
Blir
fra 24. klokken 19 UTC til 24. klokken 21 UTC
Vind 5 kt fra skiftende retning
Midlertidig
fra 24. klokken 19 UTC til 25. klokken 12 UTC
Brutte skyer i en høyde av 700 ft
lett regn, duskregn

TAF: ENSB 2418/2518 25012KT 9999 SCT009 BECMG 2419/2421 VRB05KT TEMPO 2419/2512 -RADZ BKN007

Værobservasjoner og værvarsel for over 4000 flyplasser (METAR- og TAF-rapporter).

Tilgjengelige stasjoner er representert av de røde og gule prikkene på kartet.

Hold musepekeren over prikken for å se navnet på stasjonen.

Klikk så for å se værobservasjoner og -varsler.

For å forandre kartet kan du klikke på den grønne knappen med svart kryss for å zoome inn, på den grønne knappen med strek for å zoome ut, eller på de grønne pilene for å se tilstøtende kart.


METAR-TAF: